Time;durP1;ratioP1;P1;durP2;ratioP2;P2;SDS_P1;SDS_P2;PMS_P1;PMS_P2;Temp;Humidity;BMP_temperature;BMP_pressure;BME280_temperature;BME280_humidity;BME280_pressure;Samples;Min_cycle;Max_cycle;Signal;HPM_P1;HPM_P2
2020/12/26 00:01:21;;;;;;;8.95;4.00;;;2.30;99.90;;;0.52;92.57;102218.28;4953162;29;20066;-40
2020/12/26 00:03:50;;;;;;;8.82;4.45;;;2.40;99.90;;;0.53;92.24;102203.91;4968681;28;20051;-40
2020/12/26 00:06:20;;;;;;;;;;;2.40;99.90;;;0.56;92.24;102207.22;4953394;28;20043;-40
2020/12/26 00:08:50;;;;;;;6.90;4.05;;;2.40;99.90;;;0.53;92.19;102201.22;4968815;28;19922;-40
2020/12/26 00:11:20;;;;;;;8.52;4.20;;;2.40;99.90;;;0.58;92.37;102201.75;4952600;29;20053;-40
2020/12/26 00:13:50;;;;;;;8.63;4.40;;;2.40;99.90;;;0.54;91.88;102194.91;4968599;28;20058;-40
2020/12/26 00:16:19;;;;;;;8.75;4.32;;;2.40;99.90;;;0.51;92.32;102197.78;4936754;29;20114;-40
2020/12/26 00:18:48;;;;;;;9.25;4.60;;;2.40;99.90;;;0.52;92.13;102200.38;4936745;28;20126;-40
2020/12/26 00:21:17;;;;;;;7.60;4.25;;;2.40;99.90;;;0.51;92.01;102204.03;4952729;28;20051;-40
2020/12/26 00:23:45;;;;;;;7.35;4.57;;;2.40;99.90;;;0.51;92.07;102216.59;4952399;29;20079;-40
2020/12/26 00:26:22;;;;;;;8.27;4.88;;;2.40;99.90;;;0.51;92.03;102208.53;4952676;28;20043;-40
2020/12/26 00:28:50;;;;;;;6.80;4.30;;;2.40;99.90;;;0.56;91.97;102211.75;4952524;29;20050;-40
2020/12/26 00:31:17;;;;;;;7.68;4.40;;;2.40;99.90;;;0.59;91.68;102216.91;4952517;29;20126;-40
2020/12/26 00:33:45;;;;;;;8.23;4.50;;;2.40;99.90;;;0.61;91.61;102223.00;4952293;29;20043;-40
2020/12/26 00:36:12;;;;;;;10.07;4.40;;;2.40;99.90;;;0.55;91.51;102218.09;4936639;29;20047;-40
2020/12/26 00:38:39;;;;;;;8.87;4.53;;;2.40;99.90;;;0.57;91.57;102217.00;4936388;29;20569;-40
2020/12/26 00:41:13;;;;;;;11.13;4.20;;;2.40;99.90;;;0.63;91.61;102221.06;4936493;29;20040;-40
2020/12/26 00:43:42;;;;;;;7.05;4.30;;;2.50;99.90;;;0.61;91.55;102228.38;4936206;29;20058;-40
2020/12/26 00:46:11;;;;;;;8.18;4.00;;;2.50;99.90;;;0.63;91.38;102221.06;4967252;28;20051;-40
2020/12/26 00:48:39;;;;;;;8.98;4.32;;;2.50;99.90;;;0.59;91.18;102216.91;4952246;29;20155;-40
2020/12/26 00:51:11;;;;;;;9.25;4.30;;;2.50;99.90;;;0.60;91.36;102218.63;4937105;29;20058;-40
2020/12/26 00:53:40;;;;;;;9.35;4.13;;;2.40;99.90;;;0.59;91.35;102203.47;4920435;29;20050;-40
2020/12/26 00:56:08;;;;;;;8.50;4.15;;;2.40;99.90;;;0.55;91.85;102210.88;4936267;29;20098;-40
2020/12/26 00:58:35;;;;;;;7.82;4.00;;;2.40;99.90;;;0.61;91.43;102209.59;4968066;28;20102;-40
2020/12/26 01:01:04;;;;;;;7.90;4.63;;;2.40;99.90;;;0.59;91.16;102214.22;4936536;29;20062;-40
2020/12/26 01:03:51;;;;;;;7.80;4.20;;;2.40;99.90;;;0.62;91.50;102208.59;4965665;28;20079;-40
2020/12/26 01:06:18;;;;;;;9.20;4.30;;;2.50;99.90;;;0.58;90.98;102215.19;4920295;29;20402;-40
2020/12/26 01:08:46;;;;;;;7.22;3.63;;;2.40;99.90;;;0.60;91.00;102204.31;4936021;29;20071;-40
2020/12/26 01:11:13;;;;;;;8.70;5.00;;;2.40;99.90;;;0.59;90.98;102211.53;4952029;28;20047;-40
2020/12/26 01:13:41;;;;;;;11.70;4.25;;;2.40;99.90;;;0.60;91.57;102213.25;4967963;28;20040;-40
2020/12/26 01:16:18;;;;;;;8.17;4.30;;;2.40;99.90;;;0.55;91.12;102210.88;4968176;28;20048;-40
2020/12/26 01:18:45;;;;;;;9.18;4.30;;;2.50;99.90;;;0.57;91.35;102208.09;4952029;28;20996;-40
2020/12/26 01:21:14;;;;;;;7.68;3.92;;;2.40;99.90;;;0.54;91.24;102217.22;4952279;29;20047;-40
2020/12/26 01:23:42;;;;;;;12.98;4.25;;;2.40;99.90;;;0.53;91.04;102220.88;4951785;29;20505;-40
2020/12/26 01:26:10;;;;;;;10.85;4.20;;;2.40;99.90;;;0.51;91.00;102217.44;4936045;29;20047;-40
2020/12/26 01:28:37;;;;;;;10.50;4.90;;;2.40;99.90;;;0.53;91.39;102220.00;4920230;29;20548;-40
2020/12/26 01:31:04;;;;;;;6.90;3.97;;;2.40;99.90;;;0.55;91.14;102212.72;4951936;28;20051;-40
2020/12/26 01:33:31;;;;;;;7.13;4.03;;;2.40;99.90;;;0.50;90.88;102215.75;4936202;29;20391;-40
2020/12/26 01:35:59;;;;;;;7.88;4.15;;;2.40;99.90;;;0.52;90.91;102220.97;4968136;28;20543;-40
2020/12/26 01:38:26;;;;;;;9.87;4.30;;;2.40;99.90;;;0.42;90.63;102208.22;4951678;29;20047;-40
2020/12/26 01:40:54;;;;;;;8.07;4.60;;;2.30;99.90;;;0.41;91.09;102213.72;4951782;29;20457;-40
2020/12/26 01:43:21;;;;;;;9.30;3.97;;;2.30;99.90;;;0.35;91.32;102212.34;4935775;29;20798;-40
2020/12/26 01:45:49;;;;;;;7.03;3.70;;;2.30;99.90;;;0.33;91.19;102225.03;4935633;29;20251;-40
2020/12/26 01:48:17;;;;;;;6.47;3.75;;;2.20;99.90;;;0.34;91.09;102217.81;4951437;29;20509;-40
2020/12/26 01:50:46;;;;;;;6.45;4.15;;;2.20;99.90;;;0.37;91.12;102231.88;4951776;29;20043;-40
2020/12/26 01:53:18;;;;;;;9.88;4.30;;;2.30;99.90;;;0.37;90.91;102221.16;4951676;29;20039;-40
2020/12/26 01:55:49;;;;;;;9.93;4.20;;;2.30;99.90;;;0.42;90.79;102216.28;4951866;29;20059;-40
2020/12/26 01:58:16;;;;;;;9.45;4.57;;;2.30;99.90;;;0.40;91.05;102220.91;4937850;29;20110;-40
2020/12/26 02:00:44;;;;;;;8.93;4.20;;;2.30;99.90;;;0.48;90.98;102223.06;4939404;29;20536;-40
2020/12/26 02:03:11;;;;;;;9.30;4.30;;;2.30;99.90;;;0.42;90.86;102218.97;4923461;29;21015;-40
2020/12/26 02:05:39;;;;;;;10.20;4.38;;;2.30;99.90;;;0.42;90.76;102224.34;4954927;28;20047;-40
2020/12/26 02:08:06;;;;;;;9.25;4.47;;;2.30;99.90;;;0.45;91.18;102230.47;4938887;29;20589;-40
2020/12/26 02:10:35;;;;;;;7.18;3.38;;;2.30;99.90;;;0.47;90.70;102231.22;4970959;28;20098;-40
2020/12/26 02:13:02;;;;;;;7.28;3.88;;;2.30;99.90;;;0.47;90.69;102225.84;4938907;29;20042;-40
2020/12/26 02:15:29;;;;;;;9.03;4.10;;;2.30;99.90;;;0.47;90.98;102225.84;4923027;29;20514;-40
2020/12/26 02:17:57;;;;;;;9.02;4.10;;;2.30;99.90;;;0.45;91.22;102217.03;4954688;29;20098;-40
2020/12/26 02:20:35;;;;;;;8.07;4.20;;;2.30;99.90;;;0.49;90.86;102218.53;4954956;28;20047;-40
2020/12/26 02:23:04;;;;;;;7.32;4.32;;;2.40;99.90;;;0.48;90.69;102211.44;4938813;29;20071;-40
2020/12/26 02:25:32;;;;;;;8.48;4.50;;;2.40;99.90;;;0.46;90.50;102206.19;4954791;28;20048;-40
2020/12/26 02:28:00;;;;;;;9.43;4.03;;;2.30;99.90;;;0.45;90.80;102204.47;4954618;29;20039;-40
2020/12/26 02:30:28;;;;;;;12.07;4.88;;;2.30;99.90;;;0.48;90.46;102190.81;4923004;29;20103;-40
2020/12/26 02:32:55;;;;;;;8.27;4.53;;;2.40;99.90;;;0.49;90.33;102205.09;4954703;29;20066;-40
2020/12/26 02:35:23;;;;;;;8.00;4.18;;;2.30;99.90;;;0.53;90.84;102207.44;4954241;29;20043;-40
2020/12/26 02:37:50;;;;;;;8.37;4.63;;;2.40;99.90;;;0.56;90.66;102214.44;4922894;28;20421;-40
2020/12/26 02:40:18;;;;;;;7.40;4.72;;;2.40;99.90;;;0.58;90.60;102207.13;4938664;29;20047;-40
2020/12/26 02:42:45;;;;;;;9.05;4.60;;;2.40;99.90;;;0.60;90.66;102205.19;4938672;29;20510;-40
2020/12/26 02:45:13;;;;;;;10.02;4.85;;;2.40;99.90;;;0.62;90.69;102197.00;4938250;29;20510;-40
2020/12/26 02:47:40;;;;;;;9.50;4.75;;;2.40;99.90;;;0.56;90.83;102191.09;4938284;29;20039;-40
2020/12/26 02:50:08;;;;;;;8.13;4.97;;;2.40;99.90;;;0.68;90.59;102202.78;4938495;29;20047;-40
2020/12/26 02:52:36;;;;;;;11.27;5.68;;;2.50;99.90;;;0.71;90.56;102196.34;4954144;29;20109;-40
2020/12/26 02:55:03;;;;;;;10.93;5.30;;;2.50;99.90;;;0.76;90.28;102202.22;4922465;29;20055;-40
2020/12/26 02:57:31;;;;;;;10.07;4.88;;;2.60;99.90;;;0.81;90.14;102189.28;4938306;29;20441;-40
2020/12/26 02:59:59;;;;;;;11.18;5.00;;;2.60;99.90;;;0.84;89.83;102190.91;4938392;28;20062;-40
2020/12/26 03:02:26;;;;;;;9.38;5.57;;;2.70;99.90;;;0.82;89.75;102192.84;4938187;29;20042;-40
2020/12/26 03:04:53;;;;;;;10.18;5.90;;;2.60;99.90;;;0.81;90.04;102189.28;4953888;28;20426;-40
2020/12/26 03:07:21;;;;;;;14.55;6.07;;;2.60;99.90;;;0.87;89.97;102190.66;4937766;29;20102;-40
2020/12/26 03:09:48;;;;;;;10.23;5.97;;;2.70;99.90;;;0.83;90.03;102181.13;4953179;28;20043;-40
2020/12/26 03:12:16;;;;;;;10.68;6.20;;;2.70;99.90;;;0.83;90.05;102178.44;4937718;29;20039;-40
2020/12/26 03:14:43;;;;;;;12.68;6.25;;;2.70;99.90;;;0.90;90.01;102181.50;4922412;29;20055;-40
2020/12/26 03:17:11;;;;;;;9.43;6.35;;;2.70;99.90;;;0.87;89.99;102185.28;4922134;29;20039;-40
2020/12/26 03:19:38;;;;;;;11.50;6.15;;;2.70;99.90;;;0.89;90.59;102186.03;4937919;29;20055;-40
2020/12/26 03:22:05;;;;;;;11.65;6.35;;;2.70;99.90;;;0.93;89.62;102184.81;4921988;29;20054;-40
2020/12/26 03:24:33;;;;;;;11.57;6.93;;;2.70;99.90;;;0.91;89.59;102176.03;4921781;29;20053;-40
2020/12/26 03:27:01;;;;;;;9.65;6.03;;;2.70;99.90;;;0.93;89.68;102176.75;4906113;29;20510;-40
2020/12/26 03:29:28;;;;;;;14.93;6.60;;;2.80;99.90;;;0.94;89.54;102174.94;4953576;28;20040;-40
2020/12/26 03:31:56;;;;;;;10.50;6.47;;;2.80;99.90;;;0.93;89.39;102174.06;4937519;29;20067;-40
2020/12/26 03:34:24;;;;;;;15.18;6.82;;;2.70;99.90;;;0.88;89.39;102170.88;4953370;28;20043;-40
2020/12/26 03:36:53;;;;;;;14.95;6.53;;;2.80;99.90;;;0.94;89.49;102173.09;4937670;29;20051;-40
2020/12/26 03:39:20;;;;;;;11.30;6.32;;;2.80;99.90;;;0.94;89.58;102175.78;4937545;28;20055;-40
2020/12/26 03:41:48;;;;;;;10.48;7.03;;;2.80;99.90;;;0.96;89.56;102170.31;4937674;29;20116;-40
2020/12/26 03:44:16;;;;;;;15.60;7.47;;;2.80;99.90;;;1.01;88.93;102170.81;4953055;29;20062;-40
2020/12/26 03:46:44;;;;;;;15.25;7.10;;;2.80;99.90;;;1.03;88.53;102165.31;4937046;29;20414;-40
2020/12/26 03:49:11;;;;;;;11.93;6.78;;;2.80;99.90;;;1.07;88.78;102166.81;4953169;29;20055;-40
2020/12/26 03:51:39;;;;;;;16.30;7.55;;;2.90;99.90;;;1.08;88.76;102163.16;4921494;29;20043;-40
2020/12/26 03:54:07;;;;;;;11.75;6.97;;;2.90;99.90;;;1.09;88.41;102164.84;4921174;29;20055;-40
2020/12/26 03:56:34;;;;;;;10.50;6.57;;;2.90;99.90;;;1.06;88.72;102160.56;4937273;29;20053;-40
2020/12/26 03:59:02;;;;;;;11.68;7.18;;;2.90;99.90;;;1.10;88.49;102159.34;4952886;29;20545;-40
2020/12/26 04:01:29;;;;;;;13.98;7.13;;;2.90;99.90;;;1.09;89.20;102159.47;4937109;29;20593;-40
2020/12/26 04:03:57;;;;;;;11.87;7.30;;;2.90;99.90;;;1.08;88.67;102157.78;4936811;29;20454;-40
2020/12/26 04:06:24;;;;;;;11.90;7.07;;;2.90;99.90;;;1.08;88.76;102155.91;4936740;29;20473;-40
2020/12/26 04:08:52;;;;;;;12.90;6.90;;;2.90;99.90;;;1.06;89.10;102163.25;4936934;29;20126;-40
2020/12/26 04:11:19;;;;;;;13.73;6.73;;;2.90;99.90;;;1.05;89.01;102156.16;4952606;29;20043;-40
2020/12/26 04:13:46;;;;;;;13.63;7.80;;;2.90;99.90;;;1.09;89.07;102151.41;4952550;29;20098;-40
2020/12/26 04:16:14;;;;;;;14.25;7.43;;;2.90;99.90;;;1.14;88.96;102154.59;4936789;29;20130;-40
2020/12/26 04:18:41;;;;;;;12.85;7.78;;;2.90;99.90;;;1.11;89.34;102150.31;4936727;29;20106;-40
2020/12/26 04:21:10;;;;;;;13.05;7.60;;;2.90;99.90;;;1.09;88.96;102140.66;4936704;29;20061;-40
2020/12/26 04:23:37;;;;;;;13.65;7.15;;;2.90;99.90;;;1.14;89.44;102138.47;4952656;29;20066;-40
2020/12/26 04:26:09;;;;;;;12.85;7.32;;;2.90;99.90;;;1.11;89.07;102133.34;4952403;29;20454;-40
2020/12/26 04:28:38;;;;;;;14.90;7.20;;;2.90;99.90;;;1.16;89.74;102133.84;4952537;29;20047;-40
2020/12/26 04:31:05;;;;;;;;;;;2.90;99.90;;;1.19;89.23;102130.91;4952930;29;20051;-40
2020/12/26 04:33:32;;;;;;;13.77;7.70;;;3.00;99.90;;;1.19;88.79;102128.22;4952241;29;19955;-40
2020/12/26 04:36:00;;;;;;;14.05;7.43;;;3.00;99.90;;;1.13;89.27;102124.16;4968533;28;20045;-40
2020/12/26 04:38:28;;;;;;;14.63;7.53;;;3.00;99.90;;;1.10;89.02;102127.09;4936429;29;20043;-40
2020/12/26 04:40:58;;;;;;;13.07;7.82;;;3.00;99.90;;;1.18;89.59;102122.94;4952597;29;20055;-40
2020/12/26 04:43:28;;;;;;;13.13;8.23;;;3.00;99.90;;;1.24;89.68;102122.50;4952172;29;20051;-40
2020/12/26 04:45:57;;;;;;;15.18;8.10;;;3.00;99.90;;;1.25;89.70;102113.44;4968393;28;20417;-40
2020/12/26 04:48:28;;;;;;;13.45;7.90;;;3.00;99.90;;;1.25;89.96;102113.44;4953500;29;20043;-40
2020/12/26 04:51:03;;;;;;;11.30;7.28;;;3.10;99.90;;;1.20;89.66;102111.09;4952349;29;20043;-40
2020/12/26 04:53:34;;;;;;;12.50;7.18;;;3.00;99.90;;;1.27;89.91;102095.38;4967965;28;20036;-40
2020/12/26 04:56:02;;;;;;;12.82;7.35;;;3.00;99.90;;;1.23;89.92;102100.09;4952230;29;20043;-40
2020/12/26 04:58:30;;;;;;;14.65;7.90;;;3.10;99.90;;;1.24;89.96;102080.31;4968329;28;20461;-40
2020/12/26 05:01:00;;;;;;;13.45;8.38;;;3.10;99.90;;;1.23;90.14;102085.81;4952266;29;20126;-40
2020/12/26 05:03:28;;;;;;;14.80;7.68;;;3.10;99.90;;;1.28;90.20;102079.09;4935969;29;20430;-40
2020/12/26 05:06:05;;;;;;;13.48;7.63;;;3.10;99.90;;;1.26;90.55;102077.53;4952281;29;20046;-40
2020/12/26 05:08:34;;;;;;;11.15;7.80;;;3.10;99.90;;;1.23;90.39;102078.59;4952031;29;20050;-40
2020/12/26 05:11:02;;;;;;;13.25;7.57;;;3.10;99.90;;;1.25;90.84;102086.56;4952440;29;20503;-40
2020/12/26 05:13:30;;;;;;;12.35;8.20;;;3.10;99.90;;;1.22;90.64;102079.56;4952095;29;20051;-40
2020/12/26 05:15:58;;;;;;;13.63;8.45;;;3.00;99.90;;;1.21;90.45;102080.56;4952381;28;20391;-40
2020/12/26 05:18:25;;;;;;;14.20;7.85;;;3.00;99.90;;;1.18;90.68;102067.34;4952140;28;20400;-40
2020/12/26 05:20:56;;;;;;;12.00;7.90;;;3.00;99.90;;;1.22;90.49;102076.88;4936102;29;20050;-40
2020/12/26 05:23:24;;;;;;;12.45;8.30;;;3.00;99.90;;;1.19;90.89;102073.56;4936097;29;20061;-40
2020/12/26 05:25:51;;;;;;;14.57;8.63;;;3.00;99.90;;;1.13;90.88;102067.72;4951891;29;20122;-40
2020/12/26 05:31:07;;;;;;;15.32;8.40;;;3.00;99.90;;;1.10;90.80;102077.84;4968182;28;20047;-40
2020/12/26 05:33:35;;;;;;;15.40;8.52;;;3.00;99.90;;;1.09;90.67;102078.84;4954502;28;20324;-40
2020/12/26 05:36:05;;;;;;;14.20;8.27;;;2.90;99.90;;;1.11;90.41;102080.41;4972005;28;20126;-40
2020/12/26 05:38:33;;;;;;;14.93;8.32;;;3.00;99.90;;;1.03;90.60;102079.28;4955797;28;20138;-40
2020/12/26 05:41:02;;;;;;;14.18;9.10;;;2.90;99.90;;;1.05;90.53;102088.09;4955571;28;20039;-40
2020/12/26 05:43:32;;;;;;;14.60;8.73;;;2.90;99.90;;;1.02;90.47;102085.63;4955466;28;20106;-40
2020/12/26 05:46:00;;;;;;;14.77;8.88;;;2.90;99.90;;;1.01;90.54;102090.19;4971402;28;20073;-40
2020/12/26 05:48:29;;;;;;;13.52;8.15;;;2.90;99.90;;;0.94;90.43;102078.19;4955255;29;20047;-40
2020/12/26 05:51:00;;;;;;;19.83;9.00;;;2.80;99.90;;;0.83;90.30;102077.16;4955264;29;20520;-40
2020/12/26 05:53:30;;;;;;;14.63;8.95;;;2.80;99.90;;;0.76;90.83;102062.50;4971372;28;20051;-40
2020/12/26 05:55:57;;;;;;;13.90;8.27;;;2.70;99.90;;;0.73;90.54;102072.63;4955107;29;20051;-40
2020/12/26 05:58:27;;;;;;;16.35;9.18;;;2.60;99.90;;;0.65;90.90;102062.44;4923697;29;20104;-40
2020/12/26 06:00:59;;;;;;;14.23;9.32;;;2.60;99.90;;;0.65;91.34;102059.75;4955165;29;20057;-40
2020/12/26 06:03:29;;;;;;;17.40;9.15;;;2.60;99.90;;;0.64;91.16;102058.91;4939760;29;20051;-40
2020/12/26 06:06:08;;;;;;;16.52;9.70;;;2.50;99.90;;;0.63;91.32;102056.34;4939135;29;20106;-40
2020/12/26 06:08:35;;;;;;;15.20;9.43;;;2.50;99.90;;;0.59;91.62;102058.41;4969922;28;20451;-40
2020/12/26 06:11:06;;;;;;;16.53;9.50;;;2.50;99.90;;;0.64;91.72;102055.34;4955069;28;20046;-40
2020/12/26 06:13:37;;;;;;;16.75;9.45;;;2.50;99.90;;;0.62;91.70;102060.88;4954828;29;20055;-40
2020/12/26 06:16:16;;;;;;;16.13;10.60;;;2.50;99.90;;;0.59;91.62;102047.66;4971061;28;20055;-40
2020/12/26 06:19:00;;;;;;;18.38;10.38;;;2.50;99.90;;;0.60;91.80;102054.75;4954846;28;20051;-40
2020/12/26 06:21:28;;;;;;;16.88;9.60;;;2.50;99.90;;;0.60;92.24;102061.94;4923130;29;20522;-40
2020/12/26 06:23:56;;;;;;;20.10;10.60;;;2.50;99.90;;;0.54;92.04;102058.75;4938637;29;20047;-40
2020/12/26 06:26:35;;;;;;;19.98;10.63;;;2.40;99.90;;;0.47;92.40;102059.31;4938814;29;20043;-40
2020/12/26 06:29:04;;;;;;;17.60;10.70;;;2.40;99.90;;;0.50;91.84;102059.97;4938847;29;20098;-40
2020/12/26 06:31:32;;;;;;;17.73;11.18;;;2.40;99.90;;;0.41;92.26;102063.34;4954651;29;20043;-40
2020/12/26 06:34:00;;;;;;;;;;;2.30;99.90;;;0.31;92.07;102076.59;4939258;29;20059;-40
2020/12/26 06:36:29;;;;;;;20.98;10.93;;;2.30;99.90;;;0.24;92.10;102070.81;4938991;28;19977;-40
2020/12/26 06:38:56;;;;;;;18.50;10.60;;;2.20;99.90;;;0.25;91.99;102069.84;4922690;29;20042;-40
2020/12/26 06:41:24;;;;;;;20.75;10.95;;;2.20;99.90;;;0.20;92.00;102063.97;4922836;29;20106;-40
2020/12/26 06:43:54;;;;;;;16.23;9.90;;;2.20;99.90;;;0.15;92.12;102068.84;4937099;29;20071;-40
2020/12/26 06:46:23;;;;;;;18.50;10.70;;;2.10;99.90;;;0.13;92.51;102076.13;4970274;28;20051;-40
2020/12/26 06:48:54;;;;;;;;;;;2.10;99.90;;;0.07;92.16;102069.41;4954686;29;20042;-40
2020/12/26 06:51:24;;;;;;;22.10;9.75;;;2.00;99.90;;;0.00;92.34;102073.50;4938444;29;19954;-40
2020/12/26 06:53:56;;;;;;;17.00;9.95;;;2.00;99.90;;;-0.06;92.47;102080.16;4922299;29;20526;-40
2020/12/26 06:56:33;;;;;;;18.13;10.20;;;1.90;99.90;;;-0.10;92.54;102080.50;4954284;29;20047;-40
2020/12/26 06:59:13;;;;;;;21.15;10.00;;;1.90;99.90;;;-0.07;92.50;102083.81;4954099;29;20055;-40
2020/12/26 07:01:44;;;;;;;16.65;9.75;;;1.90;99.90;;;-0.10;92.55;102085.84;4954191;28;20533;-40
2020/12/26 07:04:22;;;;;;;17.88;10.48;;;1.80;99.90;;;-0.11;92.82;102084.16;4970103;28;20043;-40
2020/12/26 07:06:53;;;;;;;18.42;10.32;;;1.80;99.90;;;-0.16;93.20;102082.66;4953791;29;20051;-40
2020/12/26 07:09:41;;;;;;;18.83;11.23;;;1.80;99.90;;;-0.21;93.21;102092.88;4938204;29;20047;-40
2020/12/26 07:12:09;;;;;;;18.10;10.02;;;1.80;99.90;;;-0.22;93.08;102096.53;4938454;29;20207;-40
2020/12/26 07:14:38;;;;;;;21.45;10.35;;;1.70;99.90;;;-0.08;93.61;102095.53;4921890;29;20046;-40
2020/12/26 07:17:07;;;;;;;20.48;10.68;;;1.80;99.90;;;-0.07;93.59;102096.38;4953718;29;20043;-40
2020/12/26 07:19:42;;;;;;;19.15;10.27;;;1.80;99.90;;;0.01;93.75;102112.78;4953942;29;20441;-40
2020/12/26 07:22:29;;;;;;;20.27;10.02;;;1.90;99.90;;;0.02;93.55;102108.25;4954053;29;20430;-40
2020/12/26 07:25:06;;;;;;;20.05;10.00;;;1.90;99.90;;;0.01;93.03;102110.09;4953493;29;20179;-40
2020/12/26 07:27:37;;;;;;;20.00;9.77;;;1.90;99.90;;;0.09;92.99;102104.16;4954846;28;20414;-40
2020/12/26 07:30:08;;;;;;;18.27;9.68;;;1.90;99.90;;;0.01;92.75;102099.38;4953551;29;20059;-40
2020/12/26 07:35:16;;;;;;;16.65;9.07;;;1.90;99.90;;;-0.09;93.13;102090.25;4953246;29;20039;-40
2020/12/26 07:37:54;;;;;;;;;;;1.90;99.90;;;-0.11;93.10;102093.06;4953958;29;20043;-40
2020/12/26 07:40:25;;;;;;;17.77;8.80;;;1.80;99.90;;;-0.13;93.20;102097.69;4923047;29;20386;-40
2020/12/26 07:42:53;;;;;;;15.02;8.57;;;1.80;99.90;;;-0.10;92.97;102091.22;4969243;28;20047;-40
2020/12/26 07:45:24;;;;;;;15.77;8.88;;;1.80;99.90;;;-0.11;93.03;102086.84;4921184;29;20043;-40
2020/12/26 07:47:54;;;;;;;20.48;8.93;;;1.80;99.90;;;-0.12;93.47;102096.72;4953056;29;20514;-40
2020/12/26 07:50:35;;;;;;;20.27;8.43;;;1.80;99.90;;;-0.11;93.13;102101.13;4953428;29;20126;-40
2020/12/26 07:53:13;;;;;;;17.42;8.15;;;1.80;99.90;;;-0.06;93.66;102103.44;4969124;28;20102;-40
2020/12/26 07:55:40;;;;;;;18.58;8.98;;;1.80;99.90;;;-0.08;93.14;102105.38;4952670;28;20109;-40
2020/12/26 07:58:20;;;;;;;16.38;9.00;;;1.80;99.90;;;-0.08;92.95;102108.06;4952893;29;20063;-40
2020/12/26 08:00:47;;;;;;;13.65;8.02;;;1.80;99.90;;;-0.07;93.28;102110.66;4953178;28;20055;-40
2020/12/26 08:03:15;;;;;;;12.40;7.25;;;1.80;99.90;;;-0.03;93.32;102119.31;4952887;29;20043;-40
2020/12/26 08:05:52;;;;;;;15.50;7.65;;;1.80;99.90;;;-0.03;93.26;102119.31;4954047;28;20053;-40
2020/12/26 08:08:24;;;;;;;18.38;8.07;;;1.80;99.90;;;0.03;93.10;102126.94;4952903;29;20082;-40
2020/12/26 08:11:02;;;;;;;15.20;7.57;;;1.90;99.90;;;-0.05;93.15;102127.50;4968958;28;20200;-40
2020/12/26 08:13:31;;;;;;;14.65;7.70;;;1.90;99.90;;;-0.04;93.12;102114.94;4936679;29;20047;-40
2020/12/26 08:16:08;;;;;;;15.70;8.15;;;1.90;99.90;;;-0.06;93.16;102117.75;4968455;28;20051;-40
2020/12/26 08:18:36;;;;;;;12.55;7.30;;;1.90;99.90;;;-0.05;93.09;102107.84;4968980;28;20051;-40
2020/12/26 08:21:06;;;;;;;14.35;7.32;;;1.90;99.90;;;-0.06;93.31;102103.44;4968935;28;20055;-40
2020/12/26 08:23:34;;;;;;;11.40;6.82;;;1.90;99.90;;;0.02;93.10;102114.50;4952727;29;20055;-40
2020/12/26 08:26:02;;;;;;;14.73;7.47;;;1.90;99.90;;;0.10;93.17;102112.13;4968652;28;20035;-40
2020/12/26 08:28:30;;;;;;;13.80;7.05;;;2.00;99.90;;;0.16;93.55;102120.69;4968270;28;20047;-40
2020/12/26 08:31:02;;;;;;;15.43;7.30;;;2.00;99.90;;;0.26;93.10;102114.53;4952531;29;20518;-40
2020/12/26 08:33:40;;;;;;;12.05;6.57;;;2.10;99.90;;;0.28;92.63;102120.63;4968367;28;20043;-40
2020/12/26 08:36:28;;;;;;;11.20;6.60;;;2.10;99.90;;;0.42;92.65;102122.31;4953894;28;20434;-40
2020/12/26 08:38:58;;;;;;;17.58;6.82;;;2.20;99.90;;;0.46;92.32;102122.06;4953601;28;20110;-40
2020/12/26 08:41:27;;;;;;;13.05;7.28;;;2.30;99.90;;;0.48;92.05;102115.63;4952780;29;20106;-40
2020/12/26 08:43:56;;;;;;;13.23;6.80;;;2.30;99.90;;;0.55;91.94;102113.34;4953494;28;20117;-40
2020/12/26 08:46:26;;;;;;;15.68;7.13;;;2.30;99.90;;;0.66;91.83;102113.38;4968448;28;20470;-40
2020/12/26 08:48:56;;;;;;;13.38;7.22;;;2.40;99.90;;;0.79;91.74;102107.94;4952231;29;20141;-40
2020/12/26 08:51:26;;;;;;;15.57;7.75;;;2.50;99.90;;;0.84;90.91;102110.28;4968432;28;20051;-40
2020/12/26 08:53:56;;;;;;;13.27;7.10;;;2.60;99.90;;;0.95;91.38;102102.25;4968099;28;20047;-40
2020/12/26 08:56:35;;;;;;;14.30;6.55;;;2.70;99.90;;;1.11;90.34;102096.53;4968452;28;20510;-40
2020/12/26 08:59:03;;;;;;;;;;;2.80;99.90;;;1.11;89.81;102103.75;4952879;29;20129;-40
2020/12/26 09:01:32;;;;;;;13.75;6.22;;;2.90;99.90;;;1.11;89.18;102098.38;4968454;28;19923;-40
2020/12/26 09:03:59;;;;;;;14.65;7.18;;;2.90;99.90;;;1.14;89.29;102090.91;4967915;28;20055;-40
2020/12/26 09:06:39;;;;;;;11.98;5.97;;;2.90;99.90;;;1.17;89.12;102084.47;4968289;28;20050;-40
2020/12/26 09:09:27;;;;;;;16.85;6.15;;;2.90;99.90;;;1.21;88.76;102080.56;4956070;29;20151;-40
2020/12/26 09:12:05;;;;;;;11.35;5.82;;;3.00;99.90;;;1.22;87.25;102084.97;4972209;28;20054;-40
2020/12/26 09:14:32;;;;;;;13.30;6.85;;;3.00;99.90;;;1.24;87.05;102088.38;4939998;29;20048;-40
2020/12/26 09:17:05;;;;;;;12.00;6.40;;;3.00;99.90;;;1.23;87.27;102075.06;4939893;29;20138;-40
2020/12/26 09:19:45;;;;;;;13.27;5.88;;;3.00;99.90;;;1.24;86.10;102076.78;4957407;28;20047;-40
2020/12/26 09:22:13;;;;;;;15.25;6.85;;;3.00;99.90;;;1.28;86.83;102062.97;4956075;29;20106;-40
2020/12/26 09:24:41;;;;;;;12.40;5.88;;;3.10;99.90;;;1.37;85.64;102079.38;4955789;29;20047;-40
2020/12/26 09:27:19;;;;;;;14.95;6.65;;;3.10;99.90;;;1.46;84.84;102075.94;4971545;28;20051;-40
2020/12/26 09:29:46;;;;;;;16.13;6.80;;;3.20;99.90;;;1.49;85.39;102078.38;4957383;28;20058;-40
2020/12/26 09:32:14;;;;;;;12.97;6.87;;;3.20;99.90;;;1.60;84.86;102074.00;4971850;28;20446;-40
2020/12/26 09:34:42;;;;;;;15.93;6.03;;;3.30;99.90;;;1.72;84.78;102078.38;4955435;29;21057;-40
2020/12/26 09:37:10;;;;;;;14.15;6.45;;;3.40;99.90;;;1.85;84.71;102073.69;4971422;28;20051;-40
2020/12/26 09:39:38;;;;;;;15.27;6.65;;;3.50;99.90;;;1.97;84.17;102060.25;4971827;28;20548;-40
2020/12/26 09:42:06;;;;;;;12.13;6.10;;;3.70;99.90;;;2.06;83.09;102058.63;4923849;29;20059;-40
2020/12/26 09:44:33;;;;;;;14.38;6.50;;;3.80;99.90;;;2.15;83.28;102066.81;4971317;28;20115;-40
2020/12/26 09:47:06;;;;;;;13.65;5.95;;;3.80;99.90;;;2.20;82.57;102068.28;4955122;29;20066;-40
2020/12/26 09:49:34;;;;;;;12.75;5.47;;;3.90;99.90;;;2.22;83.35;102072.53;4971699;28;20044;-40
2020/12/26 09:52:01;;;;;;;15.07;6.20;;;3.90;99.90;;;2.23;82.53;102071.53;4923658;29;20051;-40
2020/12/26 09:54:28;;;;;;;12.02;5.35;;;4.00;99.90;;;2.20;81.13;102071.81;4956602;28;20051;-40
2020/12/26 09:56:55;;;;;;;11.88;5.63;;;4.00;99.90;;;2.17;81.49;102058.59;4955295;28;20063;-40
2020/12/26 09:59:22;;;;;;;10.32;5.13;;;4.00;99.90;;;2.16;80.78;102056.88;4971338;28;20532;-40
2020/12/26 10:01:49;;;;;;;11.75;5.03;;;4.00;99.90;;;2.17;81.03;102060.44;4955378;29;20051;-40
2020/12/26 10:04:17;;;;;;;13.32;5.28;;;4.00;99.90;;;2.15;81.44;102056.06;4956138;28;20096;-40
2020/12/26 10:06:44;;;;;;;10.70;4.90;;;3.90;99.90;;;2.21;81.54;102056.53;4954974;29;20476;-40
2020/12/26 10:09:12;;;;;;;12.25;5.75;;;4.00;99.90;;;2.23;81.29;102041.94;4971284;28;20043;-40
2020/12/26 10:11:39;;;;;;;14.57;5.45;;;4.00;99.90;;;2.23;82.10;102041.94;4955206;29;20059;-40
2020/12/26 10:14:06;;;;;;;14.57;4.95;;;4.00;99.90;;;2.24;81.78;102032.03;4938926;29;20035;-40
2020/12/26 10:16:33;;;;;;;12.18;4.93;;;4.00;99.90;;;2.33;81.26;102031.25;4956337;28;20094;-40
2020/12/26 10:19:01;;;;;;;11.27;4.60;;;4.00;99.90;;;2.40;81.59;102034.28;4970522;28;20047;-40
2020/12/26 10:21:28;;;;;;;11.65;4.72;;;4.10;99.90;;;2.44;82.00;102027.66;4939267;29;20081;-40
2020/12/26 10:23:56;;;;;;;9.30;4.27;;;4.20;99.90;;;2.52;80.94;102018.94;4970722;28;20114;-40
2020/12/26 10:26:23;;;;;;;12.17;4.53;;;4.20;99.90;;;2.56;81.22;102005.06;4970893;28;20527;-40
2020/12/26 10:28:50;;;;;;;11.68;4.63;;;4.30;99.90;;;2.64;79.98;102009.78;4954936;29;20537;-40
2020/12/26 10:31:17;;;;;;;12.73;4.37;;;4.40;99.90;;;2.73;79.52;102002.75;4939008;29;20051;-40
2020/12/26 10:33:44;;;;;;;9.50;4.28;;;4.40;99.90;;;2.80;79.53;101998.56;4938532;29;20040;-40
2020/12/26 10:36:12;;;;;;;9.13;4.17;;;4.50;99.90;;;2.89;79.58;102002.28;4956058;29;20051;-40